East Berkshire, Vermont
Current Conditions -  °F | °C
As of 7:15 PM on Wednesday 22 Oct 2014 (Local Time) from KFSO Reporting Station
Broken Clouds Broken Clouds  
Wind Chill: 51°   Ceiling: 9000
Heat Index: 51°   Visibility: 10mi
Dew Point: 39°   Wind: 15mph
Humidity: 65%   Direction: 10°N
Pressure: 30.17"   Gusts: 20mph
Location:  44.94°N, 72.71°W
Report Text: KFSO 222315Z AUTO 01013G17KT 10SM BKN090 10/04 A3017 RMK AO2 T01040040
Loading
Personal Weather Stations






























Interactive Weather Map
Tropical Storm Tracking
New forecast layout! Learn more

10-Day Weather Forecast

Advertisements
Track Severe Weather on mobile